sensor_id;sensor_type;location;lat;lon;timestamp;pressure;altitude;pressure_sealevel;temperature;humidity
70323;BME280;57735;56.264;43.898;2023-04-26T00:00:04;99653.38;;;11.71;86.49
70323;BME280;57735;56.264;43.898;2023-04-26T00:02:38;99646.19;;;11.71;86.70
70323;BME280;57735;56.264;43.898;2023-04-26T00:05:09;99639.19;;;11.70;86.64
70323;BME280;57735;56.264;43.898;2023-04-26T00:07:40;99648.03;;;11.71;86.57
70323;BME280;57735;56.264;43.898;2023-04-26T00:10:11;99629.34;;;11.71;86.70
70323;BME280;57735;56.264;43.898;2023-04-26T00:12:42;99634.69;;;11.71;86.62
70323;BME280;57735;56.264;43.898;2023-04-26T00:15:15;99626.00;;;11.69;86.60
70323;BME280;57735;56.264;43.898;2023-04-26T00:17:48;99630.53;;;11.68;86.73
70323;BME280;57735;56.264;43.898;2023-04-26T00:20:20;99619.84;;;11.68;86.76
70323;BME280;57735;56.264;43.898;2023-04-26T00:22:51;99618.00;;;11.69;86.69
70323;BME280;57735;56.264;43.898;2023-04-26T00:25:21;99618.19;;;11.67;86.65
70323;BME280;57735;56.264;43.898;2023-04-26T00:27:52;99604.81;;;11.67;86.56
70323;BME280;57735;56.264;43.898;2023-04-26T00:30:23;99603.66;;;11.70;86.56
70323;BME280;57735;56.264;43.898;2023-04-26T00:32:56;99599.97;;;11.71;86.39
70323;BME280;57735;56.264;43.898;2023-04-26T00:35:27;99600.63;;;11.73;86.42
70323;BME280;57735;56.264;43.898;2023-04-26T00:37:57;99596.91;;;11.74;86.36
70323;BME280;57735;56.264;43.898;2023-04-26T00:40:29;99592.25;;;11.76;86.13
70323;BME280;57735;56.264;43.898;2023-04-26T00:43:05;99585.91;;;11.77;86.14
70323;BME280;57735;56.264;43.898;2023-04-26T00:45:36;99585.56;;;11.80;85.99
70323;BME280;57735;56.264;43.898;2023-04-26T00:48:07;99585.56;;;11.80;85.95
70323;BME280;57735;56.264;43.898;2023-04-26T00:50:45;99581.88;;;11.81;86.01
70323;BME280;57735;56.264;43.898;2023-04-26T00:53:17;99586.56;;;11.79;86.02
70323;BME280;57735;56.264;43.898;2023-04-26T00:55:48;99573.56;;;11.76;86.06
70323;BME280;57735;56.264;43.898;2023-04-26T00:58:23;99578.72;;;11.77;86.09
70323;BME280;57735;56.264;43.898;2023-04-26T01:00:54;99567.88;;;11.79;86.15
70323;BME280;57735;56.264;43.898;2023-04-26T01:03:25;99571.19;;;11.81;86.12
70323;BME280;57735;56.264;43.898;2023-04-26T01:05:56;99561.16;;;11.83;86.09
70323;BME280;57735;56.264;43.898;2023-04-26T01:08:27;99553.16;;;11.83;86.00
70323;BME280;57735;56.264;43.898;2023-04-26T01:10:58;99556.00;;;11.81;85.92
70323;BME280;57735;56.264;43.898;2023-04-26T01:13:31;99561.34;;;11.81;86.03
70323;BME280;57735;56.264;43.898;2023-04-26T01:16:02;99552.31;;;11.82;86.02
70323;BME280;57735;56.264;43.898;2023-04-26T01:18:34;99541.81;;;11.81;85.97
70323;BME280;57735;56.264;43.898;2023-04-26T01:21:05;99540.81;;;11.82;85.93
70323;BME280;57735;56.264;43.898;2023-04-26T01:23:36;99540.16;;;11.80;85.86
70323;BME280;57735;56.264;43.898;2023-04-26T01:26:07;99534.63;;;11.81;85.80
70323;BME280;57735;56.264;43.898;2023-04-26T01:28:40;99531.97;;;11.81;85.90
70323;BME280;57735;56.264;43.898;2023-04-26T01:31:11;99530.97;;;11.82;85.71
70323;BME280;57735;56.264;43.898;2023-04-26T01:33:44;99525.16;;;11.79;85.75
70323;BME280;57735;56.264;43.898;2023-04-26T01:36:16;99526.16;;;11.78;85.90
70323;BME280;57735;56.264;43.898;2023-04-26T01:38:47;99523.31;;;11.79;86.02
70323;BME280;57735;56.264;43.898;2023-04-26T01:41:18;99520.63;;;11.79;86.13
70323;BME280;57735;56.264;43.898;2023-04-26T01:43:49;99520.63;;;11.79;85.97
70323;BME280;57735;56.264;43.898;2023-04-26T01:46:20;99516.78;;;11.82;86.12
70323;BME280;57735;56.264;43.898;2023-04-26T01:48:51;99509.59;;;11.82;86.02
70323;BME280;57735;56.264;43.898;2023-04-26T01:51:24;99505.72;;;11.85;85.91
70323;BME280;57735;56.264;43.898;2023-04-26T01:54:04;99506.75;;;11.84;85.85
70323;BME280;57735;56.264;43.898;2023-04-26T01:56:34;99498.72;;;11.84;85.95
70323;BME280;57735;56.264;43.898;2023-04-26T01:59:05;99498.38;;;11.87;86.14
70323;BME280;57735;56.264;43.898;2023-04-26T02:01:36;99499.03;;;11.89;85.69
70323;BME280;57735;56.264;43.898;2023-04-26T02:04:11;99486.28;;;11.91;85.65
70323;BME280;57735;56.264;43.898;2023-04-26T02:06:42;99494.94;;;11.93;85.62
70323;BME280;57735;56.264;43.898;2023-04-26T02:09:13;99498.44;;;11.94;85.61
70323;BME280;57735;56.264;43.898;2023-04-26T02:11:44;99487.41;;;11.97;85.50
70323;BME280;57735;56.264;43.898;2023-04-26T02:14:23;99483.91;;;11.96;85.40
70323;BME280;57735;56.264;43.898;2023-04-26T02:16:55;99476.53;;;11.98;85.44
70323;BME280;57735;56.264;43.898;2023-04-26T02:19:26;99487.88;;;12.00;85.23
70323;BME280;57735;56.264;43.898;2023-04-26T02:21:57;99481.34;;;12.03;85.25
70323;BME280;57735;56.264;43.898;2023-04-26T02:24:28;99485.28;;;12.07;85.05
70323;BME280;57735;56.264;43.898;2023-04-26T02:27:02;99479.94;;;12.07;84.96
70323;BME280;57735;56.264;43.898;2023-04-26T02:29:34;99471.91;;;12.07;84.98
70323;BME280;57735;56.264;43.898;2023-04-26T02:32:06;99471.72;;;12.08;84.83
70323;BME280;57735;56.264;43.898;2023-04-26T02:34:37;99473.38;;;12.09;84.75
70323;BME280;57735;56.264;43.898;2023-04-26T02:37:08;99471.72;;;12.08;84.67
70323;BME280;57735;56.264;43.898;2023-04-26T02:39:39;99466.38;;;12.08;84.72
70323;BME280;57735;56.264;43.898;2023-04-26T02:42:10;99473.56;;;12.08;84.98
70323;BME280;57735;56.264;43.898;2023-04-26T02:44:50;99472.56;;;12.09;84.86
70323;BME280;57735;56.264;43.898;2023-04-26T02:47:21;99468.22;;;12.08;84.99
70323;BME280;57735;56.264;43.898;2023-04-26T02:49:51;99470.06;;;12.07;85.07
70323;BME280;57735;56.264;43.898;2023-04-26T02:52:22;99459.78;;;12.04;85.33
70323;BME280;57735;56.264;43.898;2023-04-26T02:54:53;99452.78;;;12.03;85.32
70323;BME280;57735;56.264;43.898;2023-04-26T02:57:24;99459.97;;;12.03;85.27
70323;BME280;57735;56.264;43.898;2023-04-26T02:59:54;99462.47;;;12.04;85.41
70323;BME280;57735;56.264;43.898;2023-04-26T03:02:25;99451.13;;;12.02;85.57
70323;BME280;57735;56.264;43.898;2023-04-26T03:04:56;99451.94;;;12.03;85.75
70323;BME280;57735;56.264;43.898;2023-04-26T03:07:27;99437.13;;;12.00;85.65
70323;BME280;57735;56.264;43.898;2023-04-26T03:09:57;99443.28;;;12.01;85.74
70323;BME280;57735;56.264;43.898;2023-04-26T03:12:28;99440.44;;;12.02;85.76
70323;BME280;57735;56.264;43.898;2023-04-26T03:14:59;99435.94;;;12.03;85.73
70323;BME280;57735;56.264;43.898;2023-04-26T03:17:34;99438.78;;;12.01;85.94
70323;BME280;57735;56.264;43.898;2023-04-26T03:20:05;99441.91;;;12.05;85.77
70323;BME280;57735;56.264;43.898;2023-04-26T03:22:36;99439.06;;;12.06;85.88
70323;BME280;57735;56.264;43.898;2023-04-26T03:25:07;99437.66;;;12.10;85.62
70323;BME280;57735;56.264;43.898;2023-04-26T03:27:38;99431.94;;;12.13;85.49
70323;BME280;57735;56.264;43.898;2023-04-26T03:30:11;99427.06;;;12.17;85.16
70323;BME280;57735;56.264;43.898;2023-04-26T03:32:42;99427.53;;;12.20;84.94
70323;BME280;57735;56.264;43.898;2023-04-26T03:35:13;99430.63;;;12.24;85.07
70323;BME280;57735;56.264;43.898;2023-04-26T03:37:44;99421.41;;;12.27;84.79
70323;BME280;57735;56.264;43.898;2023-04-26T03:40:15;99419.38;;;12.29;84.85
70323;BME280;57735;56.264;43.898;2023-04-26T03:42:46;99423.69;;;12.30;84.68
70323;BME280;57735;56.264;43.898;2023-04-26T03:45:17;99418.19;;;12.31;84.46
70323;BME280;57735;56.264;43.898;2023-04-26T03:47:50;99420.03;;;12.31;84.29
70323;BME280;57735;56.264;43.898;2023-04-26T03:50:21;99417.44;;;12.37;84.06
70323;BME280;57735;56.264;43.898;2023-04-26T03:52:52;99425.69;;;12.42;83.95
70323;BME280;57735;56.264;43.898;2023-04-26T03:55:23;99412.31;;;12.42;83.77
70323;BME280;57735;56.264;43.898;2023-04-26T03:57:56;99420.16;;;12.44;83.79
70323;BME280;57735;56.264;43.898;2023-04-26T04:00:27;99410.56;;;12.49;83.83
70323;BME280;57735;56.264;43.898;2023-04-26T04:03:00;99407.34;;;12.54;83.64
70323;BME280;57735;56.264;43.898;2023-04-26T04:05:32;99399.13;;;12.55;83.43
70323;BME280;57735;56.264;43.898;2023-04-26T04:08:03;99405.31;;;12.56;83.31
70323;BME280;57735;56.264;43.898;2023-04-26T04:10:34;99397.88;;;12.58;83.28
70323;BME280;57735;56.264;43.898;2023-04-26T04:13:07;99395.03;;;12.59;83.23
70323;BME280;57735;56.264;43.898;2023-04-26T04:15:38;99394.84;;;12.61;83.23
70323;BME280;57735;56.264;43.898;2023-04-26T04:18:09;99393.38;;;12.58;82.87
70323;BME280;57735;56.264;43.898;2023-04-26T04:20:40;99390.69;;;12.58;83.04
70323;BME280;57735;56.264;43.898;2023-04-26T04:23:11;99388.84;;;12.59;83.09
70323;BME280;57735;56.264;43.898;2023-04-26T04:25:41;99386.81;;;12.61;83.18
70323;BME280;57735;56.264;43.898;2023-04-26T04:28:14;99388.22;;;12.57;82.94
70323;BME280;57735;56.264;43.898;2023-04-26T04:30:45;99377.53;;;12.57;82.89
70323;BME280;57735;56.264;43.898;2023-04-26T04:33:16;99381.84;;;12.58;82.85
70323;BME280;57735;56.264;43.898;2023-04-26T04:35:48;99388.47;;;12.62;83.02
70323;BME280;57735;56.264;43.898;2023-04-26T04:38:19;99379.69;;;12.68;82.84
70323;BME280;57735;56.264;43.898;2023-04-26T04:40:50;99378.91;;;12.74;82.79
70323;BME280;57735;56.264;43.898;2023-04-26T04:43:21;99380.38;;;12.77;82.79
70323;BME280;57735;56.264;43.898;2023-04-26T04:45:53;99375.47;;;12.80;82.79
70323;BME280;57735;56.264;43.898;2023-04-26T04:48:24;99377.22;;;12.88;82.48
70323;BME280;57735;56.264;43.898;2023-04-26T04:50:55;99367.81;;;12.99;82.61
70323;BME280;57735;56.264;43.898;2023-04-26T04:53:27;99378.13;;;13.02;82.33
70323;BME280;57735;56.264;43.898;2023-04-26T04:55:58;99374.44;;;13.03;82.34
70323;BME280;57735;56.264;43.898;2023-04-26T04:58:29;99373.84;;;13.07;82.09
70323;BME280;57735;56.264;43.898;2023-04-26T05:00:59;99366.63;;;13.08;82.08
70323;BME280;57735;56.264;43.898;2023-04-26T05:03:33;99366.44;;;13.09;82.29
70323;BME280;57735;56.264;43.898;2023-04-26T05:06:04;99367.91;;;13.12;82.22
70323;BME280;57735;56.264;43.898;2023-04-26T05:08:35;99376.56;;;13.14;82.08
70323;BME280;57735;56.264;43.898;2023-04-26T05:11:08;99375.94;;;13.12;82.00
70323;BME280;57735;56.264;43.898;2023-04-26T05:13:39;99373.75;;;13.15;82.06
70323;BME280;57735;56.264;43.898;2023-04-26T05:16:09;99368.38;;;13.15;81.62
70323;BME280;57735;56.264;43.898;2023-04-26T05:18:41;99363.66;;;13.17;81.67
70323;BME280;57735;56.264;43.898;2023-04-26T05:21:12;99365.97;;;13.20;81.06
70323;BME280;57735;56.264;43.898;2023-04-26T05:23:43;99368.44;;;13.22;81.40
70323;BME280;57735;56.264;43.898;2023-04-26T05:26:17;99373.00;;;13.28;81.62
70323;BME280;57735;56.264;43.898;2023-04-26T05:28:47;99368.53;;;13.35;81.46
70323;BME280;57735;56.264;43.898;2023-04-26T05:31:18;99360.31;;;13.43;81.19
70323;BME280;57735;56.264;43.898;2023-04-26T05:33:49;99361.22;;;13.50;80.76
70323;BME280;57735;56.264;43.898;2023-04-26T05:36:22;99362.06;;;13.57;80.64
70323;BME280;57735;56.264;43.898;2023-04-26T05:38:53;99359.22;;;13.66;79.97
70323;BME280;57735;56.264;43.898;2023-04-26T05:41:24;99360.28;;;13.71;79.78
70323;BME280;57735;56.264;43.898;2023-04-26T05:43:55;99357.63;;;13.71;79.58
70323;BME280;57735;56.264;43.898;2023-04-26T05:46:26;99353.47;;;13.69;79.66
70323;BME280;57735;56.264;43.898;2023-04-26T05:48:57;99358.41;;;13.65;79.33
70323;BME280;57735;56.264;43.898;2023-04-26T05:51:27;99358.00;;;13.68;79.44
70323;BME280;57735;56.264;43.898;2023-04-26T05:53:58;99362.16;;;13.71;79.32
70323;BME280;57735;56.264;43.898;2023-04-26T05:56:31;99355.16;;;13.76;79.27
70323;BME280;57735;56.264;43.898;2023-04-26T05:59:02;99354.75;;;13.79;79.49
70323;BME280;57735;56.264;43.898;2023-04-26T06:01:32;99346.75;;;13.86;79.02
70323;BME280;57735;56.264;43.898;2023-04-26T06:04:03;99346.97;;;13.91;79.09
70323;BME280;57735;56.264;43.898;2023-04-26T06:06:37;99350.31;;;14.00;78.33
70323;BME280;57735;56.264;43.898;2023-04-26T06:09:08;99357.56;;;14.12;78.07
70323;BME280;57735;56.264;43.898;2023-04-26T06:11:39;99350.38;;;14.19;77.43
70323;BME280;57735;56.264;43.898;2023-04-26T06:14:10;99353.88;;;14.20;77.66
70323;BME280;57735;56.264;43.898;2023-04-26T06:16:41;99350.56;;;14.24;77.40
70323;BME280;57735;56.264;43.898;2023-04-26T06:19:11;99359.44;;;14.25;77.05
70323;BME280;57735;56.264;43.898;2023-04-26T06:21:42;99350.38;;;14.19;76.75
70323;BME280;57735;56.264;43.898;2023-04-26T06:24:13;99353.25;;;14.24;76.79
70323;BME280;57735;56.264;43.898;2023-04-26T06:26:44;99354.59;;;14.55;76.16
70323;BME280;57735;56.264;43.898;2023-04-26T06:29:15;99345.94;;;14.66;75.86
70323;BME280;57735;56.264;43.898;2023-04-26T06:31:46;99339.16;;;14.70;75.01
70323;BME280;57735;56.264;43.898;2023-04-26T06:34:17;99342.25;;;14.74;75.53
70323;BME280;57735;56.264;43.898;2023-04-26T06:36:48;99331.28;;;14.95;74.77
70323;BME280;57735;56.264;43.898;2023-04-26T06:39:18;99333.53;;;15.11;74.15
70323;BME280;57735;56.264;43.898;2023-04-26T06:41:49;99329.41;;;15.15;73.79
70323;BME280;57735;56.264;43.898;2023-04-26T06:44:26;99327.97;;;15.13;73.89
70323;BME280;57735;56.264;43.898;2023-04-26T06:46:57;99334.38;;;15.12;73.64
70323;BME280;57735;56.264;43.898;2023-04-26T06:49:34;99323.44;;;15.00;73.66
70323;BME280;57735;56.264;43.898;2023-04-26T06:52:04;99333.75;;;14.96;74.34
70323;BME280;57735;56.264;43.898;2023-04-26T06:54:36;99323.25;;;14.88;74.47
70323;BME280;57735;56.264;43.898;2023-04-26T06:57:07;99315.81;;;14.90;74.70
70323;BME280;57735;56.264;43.898;2023-04-26T06:59:37;99318.47;;;15.10;74.58
70323;BME280;57735;56.264;43.898;2023-04-26T07:02:08;99309.69;;;15.67;71.93
70323;BME280;57735;56.264;43.898;2023-04-26T07:04:39;99310.69;;;16.18;71.35
70323;BME280;57735;56.264;43.898;2023-04-26T07:07:10;99318.53;;;16.51;69.58
70323;BME280;57735;56.264;43.898;2023-04-26T07:09:42;99326.06;;;16.73;67.88
70323;BME280;57735;56.264;43.898;2023-04-26T07:12:13;99322.59;;;16.60;67.73
70323;BME280;57735;56.264;43.898;2023-04-26T07:14:49;99322.44;;;16.23;68.82
70323;BME280;57735;56.264;43.898;2023-04-26T07:17:20;99327.72;;;16.05;69.77
70323;BME280;57735;56.264;43.898;2023-04-26T07:19:51;99325.88;;;15.99;69.66
70323;BME280;57735;56.264;43.898;2023-04-26T07:22:22;99335.38;;;16.01;67.91
70323;BME280;57735;56.264;43.898;2023-04-26T07:24:53;99327.53;;;15.93;68.61
70323;BME280;57735;56.264;43.898;2023-04-26T07:27:24;99336.47;;;15.87;68.97
70323;BME280;57735;56.264;43.898;2023-04-26T07:29:55;99320.97;;;15.83;69.47
70323;BME280;57735;56.264;43.898;2023-04-26T07:32:26;99326.56;;;15.88;69.62
70323;BME280;57735;56.264;43.898;2023-04-26T07:34:59;99315.59;;;15.83;69.47
70323;BME280;57735;56.264;43.898;2023-04-26T07:37:30;99321.81;;;15.83;69.89
70323;BME280;57735;56.264;43.898;2023-04-26T07:40:01;99312.50;;;15.86;69.69
70323;BME280;57735;56.264;43.898;2023-04-26T07:42:34;99315.13;;;15.92;70.00
70323;BME280;57735;56.264;43.898;2023-04-26T07:45:05;99320.72;;;15.97;70.40
70323;BME280;57735;56.264;43.898;2023-04-26T07:47:37;99331.25;;;15.99;70.38
70323;BME280;57735;56.264;43.898;2023-04-26T07:50:10;99332.09;;;15.93;70.08
70323;BME280;57735;56.264;43.898;2023-04-26T07:52:44;99325.88;;;15.99;70.80
70323;BME280;57735;56.264;43.898;2023-04-26T07:55:14;99320.06;;;16.02;70.62
70323;BME280;57735;56.264;43.898;2023-04-26T07:57:49;99314.19;;;16.18;71.05
70323;BME280;57735;56.264;43.898;2023-04-26T08:00:20;99316.88;;;16.50;68.69
70323;BME280;57735;56.264;43.898;2023-04-26T08:02:56;99309.97;;;16.92;68.01
70323;BME280;57735;56.264;43.898;2023-04-26T08:05:26;99312.69;;;17.28;65.28
70323;BME280;57735;56.264;43.898;2023-04-26T08:07:57;99306.38;;;17.41;64.48
70323;BME280;57735;56.264;43.898;2023-04-26T08:10:30;99310.72;;;17.42;65.59
70323;BME280;57735;56.264;43.898;2023-04-26T08:13:00;99305.91;;;17.44;65.25
70323;BME280;57735;56.264;43.898;2023-04-26T08:15:32;99302.53;;;17.49;65.80
70323;BME280;57735;56.264;43.898;2023-04-26T08:18:03;99301.50;;;17.50;66.08
70323;BME280;57735;56.264;43.898;2023-04-26T08:20:34;99291.09;;;17.53;65.94
70323;BME280;57735;56.264;43.898;2023-04-26T08:23:05;99295.13;;;17.44;65.39
70323;BME280;57735;56.264;43.898;2023-04-26T08:25:35;99300.88;;;17.29;65.58
70323;BME280;57735;56.264;43.898;2023-04-26T08:28:06;99288.38;;;17.35;65.02
70323;BME280;57735;56.264;43.898;2023-04-26T08:30:38;99283.50;;;17.62;63.50
70323;BME280;57735;56.264;43.898;2023-04-26T08:33:08;99274.72;;;18.03;62.87
70323;BME280;57735;56.264;43.898;2023-04-26T08:35:39;99274.81;;;18.38;62.01
70323;BME280;57735;56.264;43.898;2023-04-26T08:38:10;99264.91;;;18.62;60.04
70323;BME280;57735;56.264;43.898;2023-04-26T08:40:42;99262.97;;;18.92;58.21
70323;BME280;57735;56.264;43.898;2023-04-26T08:43:16;99261.19;;;19.09;56.23
70323;BME280;57735;56.264;43.898;2023-04-26T08:45:47;99265.88;;;18.91;56.27
70323;BME280;57735;56.264;43.898;2023-04-26T08:48:18;99255.53;;;18.64;56.62
70323;BME280;57735;56.264;43.898;2023-04-26T08:50:52;99253.59;;;18.41;58.09
70323;BME280;57735;56.264;43.898;2023-04-26T08:53:24;99259.97;;;18.17;58.96
70323;BME280;57735;56.264;43.898;2023-04-26T08:55:55;99248.94;;;18.07;59.53
70323;BME280;57735;56.264;43.898;2023-04-26T08:58:29;99250.31;;;17.98;58.32
70323;BME280;57735;56.264;43.898;2023-04-26T09:01:00;99254.69;;;18.64;55.83
70323;BME280;57735;56.264;43.898;2023-04-26T09:03:31;99250.34;;;18.63;55.86
70323;BME280;57735;56.264;43.898;2023-04-26T09:06:02;99255.16;;;18.61;57.29
70323;BME280;57735;56.264;43.898;2023-04-26T09:08:35;99260.88;;;18.53;56.32
70323;BME280;57735;56.264;43.898;2023-04-26T09:11:10;99253.72;;;18.46;54.11
70323;BME280;57735;56.264;43.898;2023-04-26T09:13:43;99246.41;;;18.89;54.41
70323;BME280;57735;56.264;43.898;2023-04-26T09:16:14;99246.47;;;19.17;52.88
70323;BME280;57735;56.264;43.898;2023-04-26T09:18:51;99240.47;;;19.78;51.53
70323;BME280;57735;56.264;43.898;2023-04-26T09:21:23;99244.00;;;20.07;49.07
70323;BME280;57735;56.264;43.898;2023-04-26T09:24:02;99228.91;;;20.40;48.93
70323;BME280;57735;56.264;43.898;2023-04-26T09:26:36;99230.41;;;21.03;48.01
70323;BME280;57735;56.264;43.898;2023-04-26T09:29:17;99223.16;;;21.08;48.02
70323;BME280;57735;56.264;43.898;2023-04-26T09:31:48;99224.50;;;21.06;48.23
70323;BME280;57735;56.264;43.898;2023-04-26T09:34:20;99219.47;;;20.76;48.30
70323;BME280;57735;56.264;43.898;2023-04-26T09:36:51;99216.00;;;20.64;47.86
70323;BME280;57735;56.264;43.898;2023-04-26T09:39:36;99220.06;;;20.33;48.09
70323;BME280;57735;56.264;43.898;2023-04-26T09:42:15;99205.63;;;19.94;49.00
70323;BME280;57735;56.264;43.898;2023-04-26T09:44:49;99210.34;;;19.86;49.02
70323;BME280;57735;56.264;43.898;2023-04-26T09:47:21;99218.66;;;20.13;47.99
70323;BME280;57735;56.264;43.898;2023-04-26T09:49:52;99210.09;;;20.50;47.05
70323;BME280;57735;56.264;43.898;2023-04-26T09:52:23;99215.50;;;20.67;47.39
70323;BME280;57735;56.264;43.898;2023-04-26T09:54:56;99218.91;;;20.40;46.84
70323;BME280;57735;56.264;43.898;2023-04-26T09:57:27;99218.25;;;20.05;47.85
70323;BME280;57735;56.264;43.898;2023-04-26T09:59:57;99206.56;;;19.88;48.09
70323;BME280;57735;56.264;43.898;2023-04-26T10:02:30;99214.59;;;19.54;49.05
70323;BME280;57735;56.264;43.898;2023-04-26T10:05:05;99208.38;;;19.30;50.13
70323;BME280;57735;56.264;43.898;2023-04-26T10:07:36;99209.16;;;19.02;49.66
70323;BME280;57735;56.264;43.898;2023-04-26T10:10:07;99211.38;;;18.94;49.77
70323;BME280;57735;56.264;43.898;2023-04-26T10:12:40;99215.06;;;18.76;49.05
70323;BME280;57735;56.264;43.898;2023-04-26T10:15:14;99218.75;;;18.52;50.87
70323;BME280;57735;56.264;43.898;2023-04-26T10:17:48;99223.72;;;18.13;54.30
70323;BME280;57735;56.264;43.898;2023-04-26T10:20:19;99243.97;;;17.92;55.22
70323;BME280;57735;56.264;43.898;2023-04-26T10:22:56;99247.28;;;18.06;53.42
70323;BME280;57735;56.264;43.898;2023-04-26T10:25:38;99239.56;;;17.61;54.63
70323;BME280;57735;56.264;43.898;2023-04-26T10:28:10;99242.59;;;17.17;55.76
70323;BME280;57735;56.264;43.898;2023-04-26T10:30:57;99241.38;;;16.94;56.02
70323;BME280;57735;56.264;43.898;2023-04-26T10:33:28;99247.31;;;17.03;56.55
70323;BME280;57735;56.264;43.898;2023-04-26T10:36:11;99248.75;;;16.81;58.10
70323;BME280;57735;56.264;43.898;2023-04-26T10:39:17;99253.88;;;16.64;59.10
70323;BME280;57735;56.264;43.898;2023-04-26T10:41:50;99253.00;;;16.70;58.84
70323;BME280;57735;56.264;43.898;2023-04-26T10:44:40;99249.38;;;16.58;60.52
70323;BME280;57735;56.264;43.898;2023-04-26T10:47:21;99247.97;;;16.49;60.51
70323;BME280;57735;56.264;43.898;2023-04-26T10:50:07;99248.47;;;16.39;60.79
70323;BME280;57735;56.264;43.898;2023-04-26T10:55:42;99252.34;;;15.87;64.08
70323;BME280;57735;56.264;43.898;2023-04-26T10:58:34;99254.06;;;15.75;64.83
70323;BME280;57735;56.264;43.898;2023-04-26T11:01:15;99246.56;;;16.15;65.05
70323;BME280;57735;56.264;43.898;2023-04-26T11:06:55;99233.63;;;17.89;55.88
70323;BME280;57735;56.264;43.898;2023-04-26T11:09:37;99235.31;;;18.55;52.22
70323;BME280;57735;56.264;43.898;2023-04-26T11:12:13;99231.25;;;18.88;49.17
70323;BME280;57735;56.264;43.898;2023-04-26T11:14:44;99220.84;;;19.43;47.70
70323;BME280;57735;56.264;43.898;2023-04-26T11:17:15;99226.81;;;19.57;46.14
70323;BME280;57735;56.264;43.898;2023-04-26T11:19:46;99222.59;;;19.77;45.63
70323;BME280;57735;56.264;43.898;2023-04-26T11:22:20;99235.50;;;19.87;46.77
70323;BME280;57735;56.264;43.898;2023-04-26T11:24:51;99232.97;;;19.97;42.71
70323;BME280;57735;56.264;43.898;2023-04-26T11:27:26;99234.78;;;19.92;43.90
70323;BME280;57735;56.264;43.898;2023-04-26T11:30:01;99239.50;;;19.84;43.40
70323;BME280;57735;56.264;43.898;2023-04-26T11:32:34;99245.16;;;19.83;44.21
70323;BME280;57735;56.264;43.898;2023-04-26T11:35:05;99236.63;;;19.74;43.35
70323;BME280;57735;56.264;43.898;2023-04-26T11:37:36;99243.56;;;19.70;44.75
70323;BME280;57735;56.264;43.898;2023-04-26T11:40:10;99242.41;;;19.66;45.27
70323;BME280;57735;56.264;43.898;2023-04-26T11:42:43;99250.41;;;19.61;44.56
70323;BME280;57735;56.264;43.898;2023-04-26T11:45:16;99250.75;;;19.65;44.65
70323;BME280;57735;56.264;43.898;2023-04-26T11:47:47;99252.16;;;19.67;44.86
70323;BME280;57735;56.264;43.898;2023-04-26T11:50:19;99243.28;;;19.55;45.92
70323;BME280;57735;56.264;43.898;2023-04-26T11:53:01;99252.19;;;19.44;45.11
70323;BME280;57735;56.264;43.898;2023-04-26T11:55:35;99253.16;;;19.38;45.74
70323;BME280;57735;56.264;43.898;2023-04-26T11:58:11;99249.50;;;19.32;47.24
70323;BME280;57735;56.264;43.898;2023-04-26T12:00:56;99242.09;;;19.39;46.22
70323;BME280;57735;56.264;43.898;2023-04-26T12:03:33;99239.28;;;19.34;46.65
70323;BME280;57735;56.264;43.898;2023-04-26T12:06:07;99240.72;;;19.25;46.64
70323;BME280;57735;56.264;43.898;2023-04-26T12:08:40;99236.38;;;19.12;47.61
70323;BME280;57735;56.264;43.898;2023-04-26T12:11:15;99232.16;;;19.16;48.22
70323;BME280;57735;56.264;43.898;2023-04-26T12:13:46;99228.41;;;19.17;47.89
70323;BME280;57735;56.264;43.898;2023-04-26T12:16:17;99235.88;;;19.27;47.77
70323;BME280;57735;56.264;43.898;2023-04-26T12:18:51;99233.53;;;19.31;47.97
70323;BME280;57735;56.264;43.898;2023-04-26T12:21:22;99232.19;;;19.45;48.16
70323;BME280;57735;56.264;43.898;2023-04-26T12:23:57;99234.53;;;19.65;47.82
70323;BME280;57735;56.264;43.898;2023-04-26T12:26:43;99236.53;;;20.14;45.82
70323;BME280;57735;56.264;43.898;2023-04-26T12:29:14;99229.47;;;20.75;44.40
70323;BME280;57735;56.264;43.898;2023-04-26T12:31:47;99233.53;;;21.33;43.17
70323;BME280;57735;56.264;43.898;2023-04-26T12:34:18;99227.34;;;20.61;44.48
70323;BME280;57735;56.264;43.898;2023-04-26T12:36:49;99227.31;;;19.99;44.97
70323;BME280;57735;56.264;43.898;2023-04-26T12:39:19;99230.41;;;19.62;46.18
70323;BME280;57735;56.264;43.898;2023-04-26T12:41:51;99227.78;;;19.27;46.60
70323;BME280;57735;56.264;43.898;2023-04-26T12:44:21;99220.75;;;19.14;46.60
70323;BME280;57735;56.264;43.898;2023-04-26T12:46:55;99224.31;;;20.12;45.23
70323;BME280;57735;56.264;43.898;2023-04-26T12:49:26;99223.97;;;21.26;42.74
70323;BME280;57735;56.264;43.898;2023-04-26T12:51:59;99220.00;;;22.04;40.17
70323;BME280;57735;56.264;43.898;2023-04-26T12:54:29;99230.22;;;22.87;38.25
70323;BME280;57735;56.264;43.898;2023-04-26T12:57:00;99226.63;;;22.45;38.88
70323;BME280;57735;56.264;43.898;2023-04-26T12:59:31;99223.78;;;22.61;38.91
70323;BME280;57735;56.264;43.898;2023-04-26T13:02:05;99240.16;;;23.61;37.74
70323;BME280;57735;56.264;43.898;2023-04-26T13:04:37;99236.53;;;24.38;36.16
70323;BME280;57735;56.264;43.898;2023-04-26T13:07:08;99239.25;;;23.45;37.36
70323;BME280;57735;56.264;43.898;2023-04-26T13:09:41;99240.31;;;23.39;37.00
70323;BME280;57735;56.264;43.898;2023-04-26T13:12:14;99236.41;;;23.82;36.74
70323;BME280;57735;56.264;43.898;2023-04-26T13:14:44;99242.63;;;22.41;39.43
70323;BME280;57735;56.264;43.898;2023-04-26T13:17:16;99237.44;;;21.64;40.77
70323;BME280;57735;56.264;43.898;2023-04-26T13:19:47;99244.91;;;21.13;41.87
70323;BME280;57735;56.264;43.898;2023-04-26T13:22:18;99241.28;;;20.52;43.24